Time;durP1;ratioP1;P1;durP2;ratioP2;P2;SDS_P1;SDS_P2;PMS_P1;PMS_P2;Temp;Humidity;BMP_temperature;BMP_pressure;BME280_temperature;BME280_humidity;BME280_pressure;Samples;Min_cycle;Max_cycle;Signal;HPM_P1;HPM_P2
2023/07/20 00:00:38;;;;;;;5.13;2.38;;;;;;;22.54;67.25;64338.75;5103544;28;20231;-80
2023/07/20 00:03:16;;;;;;;4.78;2.65;;;;;;;22.35;67.22;64321.47;5113001;28;20187;-81
2023/07/20 00:05:44;;;;;;;6.28;2.50;;;;;;;22.46;67.56;64330.38;5112042;28;20235;-80
2023/07/20 00:08:11;;;;;;;7.13;2.90;;;;;;;22.44;67.79;64325.16;5097276;28;20234;-81
2023/07/20 00:10:38;;;;;;;3.92;2.35;;;;;;;22.52;67.09;64336.13;5102880;28;20203;-82
2023/07/20 00:13:05;;;;;;;6.57;2.20;;;;;;;22.33;69.13;64316.28;5091522;28;20235;-79
2023/07/20 00:15:34;;;;;;;3.42;1.88;;;;;;;22.28;69.85;64308.97;5109205;28;20488;-82
2023/07/20 00:18:01;;;;;;;5.55;2.90;;;;;;;22.17;70.17;64302.66;5106209;28;20187;-80
2023/07/20 00:20:28;;;;;;;6.38;3.10;;;;;;;21.92;71.29;64278.59;5103818;28;20235;-81
2023/07/20 00:22:57;;;;;;;5.68;2.85;;;;;;;21.92;72.64;64278.59;5106099;28;20218;-80
2023/07/20 00:25:24;;;;;;;3.25;2.60;;;;;;;22.00;72.11;64284.38;5109085;28;20213;-82
2023/07/20 00:27:51;;;;;;;8.25;3.00;;;;;;;21.92;70.71;64268.22;5100969;28;20469;-80
2023/07/20 00:30:18;;;;;;;4.95;3.10;;;;;;;21.98;70.39;64279.69;5090135;28;20184;-79
2023/07/20 00:32:47;;;;;;;4.20;3.05;;;;;;;21.84;71.75;64262.44;5105952;28;20215;-81
2023/07/20 00:35:14;;;;;;;7.03;2.88;;;;;;;21.90;72.28;64271.31;5109316;28;20196;-80
2023/07/20 00:37:42;;;;;;;3.25;3.00;;;;;;;22.02;69.66;64283.88;5110087;28;20414;-84
2023/07/20 00:40:09;;;;;;;5.70;3.38;;;;;;;22.04;69.89;64283.88;5098866;28;20224;-81
2023/07/20 00:42:36;;;;;;;5.10;4.00;;;;;;;22.11;69.69;64296.38;5109264;28;20271;-80
2023/07/20 00:45:04;;;;;;;4.85;2.83;;;;;;;21.94;70.05;64276.03;5109591;28;20203;-82
2023/07/20 00:47:32;;;;;;;3.83;3.05;;;;;;;22.16;69.86;64295.91;5088358;28;20216;-81
2023/07/20 00:50:01;;;;;;;5.38;2.97;;;;;;;22.06;71.98;64283.38;5088893;28;20392;-80
2023/07/20 00:52:30;;;;;;;11.38;3.20;;;;;;;22.11;70.50;64295.84;5106905;28;20242;-81
2023/07/20 00:54:57;;;;;;;3.67;3.38;;;;;;;22.10;69.83;64292.22;5110504;28;20200;-81
2023/07/20 00:57:25;;;;;;;4.68;2.30;;;;;;;22.10;67.81;64289.63;5101721;28;20212;-83
2023/07/20 00:59:52;;;;;;;4.38;3.10;;;;;;;22.07;67.46;64289.59;5106787;28;20223;-81
2023/07/20 01:02:20;;;;;;;10.07;3.17;;;;;;;22.13;67.30;64292.75;5108022;28;20232;-81
2023/07/20 01:04:47;;;;;;;5.97;3.08;;;;;;;22.12;66.96;64294.31;5100099;28;20218;-81
2023/07/20 01:07:24;;;;;;;4.13;2.50;;;;;;;22.17;66.91;64296.94;5110317;28;20215;-81
2023/07/20 01:10:01;;;;;;;5.97;3.75;;;;;;;22.13;67.34;64295.34;5110050;28;20244;-81
2023/07/20 01:12:34;;;;;;;6.90;3.35;;;;;;;21.95;70.61;64271.34;5106533;28;20245;-78
2023/07/20 01:15:02;;;;;;;4.25;2.95;;;;;;;21.84;72.70;64262.44;5093992;28;20188;-81
2023/07/20 01:17:29;;;;;;;4.25;2.85;;;;;;;21.69;74.66;64247.81;5089839;28;20216;-80
2023/07/20 01:19:57;;;;;;;5.15;3.17;;;;;;;21.65;76.08;64246.22;5103855;28;20231;-80
2023/07/20 01:22:53;;;;;;;3.05;2.67;;;;;;;21.48;79.93;64225.88;5104405;28;20305;-82
2023/07/20 01:25:46;;;;;;;4.70;2.70;;;;;;;21.37;82.20;64214.38;5108819;28;20206;-82
2023/07/20 01:28:47;;;;;;;3.72;3.00;;;;;;;21.05;86.04;64183.03;5109519;28;20202;-81
2023/07/20 01:31:21;;;;;;;5.15;3.35;;;;;;;20.84;88.29;64158.47;5095163;28;20425;-82
2023/07/20 01:33:49;;;;;;;5.05;2.67;;;;;;;20.90;88.14;64165.25;5088820;28;20267;-82
2023/07/20 01:36:19;;;;;;;8.15;2.83;;;;;;;20.85;88.22;64159.53;5090132;28;20279;-81
2023/07/20 01:38:47;;;;;;;6.80;3.60;;;;;;;20.76;87.33;64153.22;5096351;28;20240;-80
2023/07/20 01:41:16;;;;;;;3.42;3.05;;;;;;;20.79;89.81;64155.84;5097769;28;20262;-85
2023/07/20 01:43:44;;;;;;;4.38;3.58;;;;;;;20.72;90.26;64149.06;5109434;28;20222;-80
2023/07/20 01:46:11;;;;;;;5.43;2.72;;;;;;;20.55;90.88;64131.84;5111396;28;20274;-81
2023/07/20 01:48:39;;;;;;;5.38;3.50;;;;;;;20.54;89.79;64127.69;5109550;28;20245;-81
2023/07/20 01:51:06;;;;;;;7.32;3.92;;;;;;;20.43;89.50;64111.53;5090347;28;20216;-81
2023/07/20 01:53:33;;;;;;;5.90;2.95;;;;;;;20.42;90.08;64112.56;5089063;28;20195;-81
2023/07/20 01:56:01;;;;;;;6.10;3.40;;;;;;;20.43;89.85;64121.38;5093244;28;20219;-81
2023/07/20 01:58:28;;;;;;;3.25;2.95;;;;;;;20.43;90.23;64116.72;5094505;28;20195;-81
2023/07/20 02:00:55;;;;;;;4.65;3.67;;;;;;;20.42;90.45;64115.69;5109040;28;20245;-81
2023/07/20 02:03:23;;;;;;;4.82;3.13;;;;;;;20.39;92.27;64115.16;5107615;28;20233;-80
2023/07/20 02:05:52;;;;;;;6.05;3.75;;;;;;;20.32;92.67;64100.06;5107576;28;20216;-81
2023/07/20 02:08:19;;;;;;;4.13;2.97;;;;;;;20.06;93.93;64078.09;5104291;28;20205;-80
2023/07/20 02:10:47;;;;;;;6.47;3.60;;;;;;;20.07;92.26;64078.63;5108124;28;20215;-79
2023/07/20 02:13:14;;;;;;;9.63;3.33;;;;;;;20.08;92.35;64082.25;5109419;28;20434;-82
2023/07/20 02:15:42;;;;;;;5.95;3.67;;;;;;;20.08;92.31;64079.66;5105949;28;20206;-81
2023/07/20 02:18:10;;;;;;;4.80;3.63;;;;;;;20.10;91.74;64086.91;5110808;28;20211;-81
2023/07/20 02:20:37;;;;;;;4.03;3.20;;;;;;;20.10;91.96;64084.88;5112875;28;20246;-82
2023/07/20 02:23:06;;;;;;;7.63;3.47;;;;;;;20.13;90.20;64087.47;5116347;28;20195;-81
2023/07/20 02:25:33;;;;;;;3.85;3.22;;;;;;;20.16;89.07;64093.72;5102112;28;20195;-80
2023/07/20 02:28:00;;;;;;;8.02;3.95;;;;;;;20.19;87.58;64086.50;5112162;28;20195;-82
2023/07/20 02:30:28;;;;;;;6.35;3.10;;;;;;;20.26;87.37;64098.47;5112848;28;20409;-83
2023/07/20 02:32:58;;;;;;;7.85;3.22;;;;;;;20.25;84.60;64100.00;5110215;28;20191;-83
2023/07/20 02:35:25;;;;;;;7.10;3.00;;;;;;;20.29;83.35;64102.13;5102683;28;20218;-81
2023/07/20 02:37:53;;;;;;;5.65;3.05;;;;;;;20.28;84.00;64101.06;5090672;28;20508;-81
2023/07/20 02:40:21;;;;;;;5.25;3.30;;;;;;;20.38;84.25;64108.91;5090972;28;20247;-82
2023/07/20 02:42:48;;;;;;;6.95;3.50;;;;;;;20.32;86.17;64104.72;5094775;28;20235;-81
2023/07/20 02:45:16;;;;;;;5.90;3.33;;;;;;;20.07;86.50;64078.63;5111282;28;20195;-82
2023/07/20 02:47:43;;;;;;;5.53;3.10;;;;;;;20.27;85.54;64107.78;5112167;28;20227;-82
2023/07/20 02:50:13;;;;;;;6.72;2.88;;;;;;;20.29;85.41;64099.00;5111090;28;20221;-81
2023/07/20 02:52:40;;;;;;;8.05;3.35;;;;;;;20.27;86.26;64096.91;5106077;28;20220;-82
2023/07/20 02:55:08;;;;;;;5.00;3.28;;;;;;;20.30;85.73;64102.63;5091967;28;20218;-81
2023/07/20 02:57:37;;;;;;;3.85;2.58;;;;;;;20.30;84.64;64105.22;5090393;28;20220;-81
2023/07/20 03:00:06;;;;;;;5.22;3.75;;;;;;;20.06;83.40;64072.41;5090033;28;20295;-81
2023/07/20 03:02:34;;;;;;;3.90;3.03;;;;;;;20.24;85.04;64098.97;5095220;28;20381;-83
2023/07/20 03:05:05;;;;;;;5.25;2.85;;;;;;;20.15;86.04;64089.56;5093375;28;20253;-81
2023/07/20 03:07:33;;;;;;;8.57;3.17;;;;;;;20.13;85.34;64084.88;5091626;28;20220;-80
2023/07/20 03:10:00;;;;;;;6.20;2.90;;;;;;;20.10;85.68;64084.34;5096348;28;20230;-80
2023/07/20 03:12:27;;;;;;;4.60;3.40;;;;;;;20.09;86.48;64080.69;5113232;28;20216;-83
2023/07/20 03:14:57;;;;;;;3.92;2.95;;;;;;;20.06;84.61;64077.56;5114539;28;20196;-80
2023/07/20 03:17:24;;;;;;;5.32;2.58;;;;;;;20.07;81.83;64078.63;5112809;28;20282;-81
2023/07/20 03:19:51;;;;;;;7.00;3.25;;;;;;;20.13;80.93;64088.00;5107337;28;20278;-84
2023/07/20 03:22:18;;;;;;;4.45;2.72;;;;;;;20.14;81.24;64091.59;5105806;28;20218;-82
2023/07/20 03:24:45;;;;;;;5.72;3.03;;;;;;;20.18;79.78;64090.09;5110680;28;20257;-81
2023/07/20 03:27:12;;;;;;;4.57;2.75;;;;;;;20.18;78.90;64090.09;5111558;28;20571;-81
2023/07/20 03:29:40;;;;;;;7.68;3.22;;;;;;;20.25;79.17;64097.94;5107641;28;20211;-80
2023/07/20 03:32:10;;;;;;;6.32;2.58;;;;;;;20.27;80.66;64100.03;5110282;28;20245;-81
2023/07/20 03:34:37;;;;;;;6.43;3.10;;;;;;;20.39;80.78;64114.63;5111939;28;20361;-82
2023/07/20 03:37:06;;;;;;;7.30;2.78;;;;;;;20.41;81.61;64116.72;5108284;28;20208;-81
2023/07/20 03:39:33;;;;;;;5.35;2.95;;;;;;;20.45;82.30;64118.81;5110626;28;20266;-81
2023/07/20 03:42:00;;;;;;;5.93;2.83;;;;;;;20.39;82.91;64109.44;5113828;28;20260;-82
2023/07/20 03:44:27;;;;;;;4.30;2.83;;;;;;;20.49;82.52;64123.00;5111323;28;20352;-81
2023/07/20 03:46:54;;;;;;;5.70;3.00;;;;;;;20.59;81.47;64132.91;5106902;28;20223;-82
2023/07/20 03:49:23;;;;;;;4.55;2.28;;;;;;;20.61;81.92;64135.00;5108655;28;20195;-82
2023/07/20 03:51:50;;;;;;;2.95;2.28;;;;;;;20.67;81.56;64141.78;5111598;28;20238;-81
2023/07/20 03:54:17;;;;;;;9.23;2.65;;;;;;;20.80;79.17;64151.72;5099248;28;20393;-82
2023/07/20 03:56:44;;;;;;;8.90;3.20;;;;;;;20.87;79.43;64159.03;5107075;28;20219;-81
2023/07/20 03:59:11;;;;;;;7.95;2.63;;;;;;;20.91;79.21;64168.91;5110045;28;20191;-82
2023/07/20 04:01:39;;;;;;;7.18;3.53;;;;;;;21.03;79.54;64181.47;5111838;28;20235;-80
2023/07/20 04:04:08;;;;;;;7.00;3.38;;;;;;;21.12;81.67;64188.25;5116463;28;20188;-81
2023/07/20 04:06:36;;;;;;;4.00;3.22;;;;;;;21.23;82.30;64194.03;5112530;28;20282;-81
2023/07/20 04:09:05;;;;;;;6.53;3.60;;;;;;;21.37;83.18;64214.38;5109903;28;20195;-80
2023/07/20 04:11:32;;;;;;;3.45;3.15;;;;;;;21.37;83.92;64211.78;5106337;28;20211;-80
2023/07/20 04:14:01;;;;;;;9.45;2.80;;;;;;;21.43;84.43;64220.63;5104213;28;20203;-81
2023/07/20 04:16:28;;;;;;;8.82;2.97;;;;;;;21.43;86.00;64220.13;5113208;28;20243;-80
2023/07/20 04:18:56;;;;;;;5.63;2.70;;;;;;;21.50;85.75;64232.63;5111940;28;20266;-82
2023/07/20 04:21:23;;;;;;;6.55;2.67;;;;;;;21.58;83.71;64236.31;5109572;28;20796;-79
2023/07/20 04:23:52;;;;;;;5.53;2.80;;;;;;;21.71;86.28;64249.91;5110676;28;20199;-79
2023/07/20 04:26:19;;;;;;;4.60;2.70;;;;;;;21.73;86.67;64251.47;5113849;28;20218;-80
2023/07/20 04:28:47;;;;;;;4.85;3.08;;;;;;;21.85;87.69;64264.00;5107563;28;20237;-80
2023/07/20 04:31:15;;;;;;;6.85;2.95;;;;;;;21.79;89.98;64260.34;5109439;28;20219;-77
2023/07/20 04:33:42;;;;;;;8.68;3.05;;;;;;;21.63;91.10;64233.75;5109419;28;20231;-79
2023/07/20 04:36:10;;;;;;;4.45;3.22;;;;;;;21.54;92.10;64232.13;5110897;28;20397;-79
2023/07/20 04:38:37;;;;;;;4.53;2.80;;;;;;;21.56;92.82;64234.22;5108217;28;20215;-80
2023/07/20 04:41:06;;;;;;;9.07;3.22;;;;;;;21.60;94.51;64241.00;5099920;28;20254;-80
2023/07/20 04:43:33;;;;;;;7.50;3.17;;;;;;;21.44;92.77;64221.69;5108640;28;20195;-81
2023/07/20 04:46:00;;;;;;;6.88;3.50;;;;;;;21.70;91.80;64250.91;5109427;28;20236;-82
2023/07/20 04:48:27;;;;;;;5.63;3.38;;;;;;;21.76;92.76;64254.59;5108265;28;20252;-80
2023/07/20 04:50:55;;;;;;;6.30;3.55;;;;;;;21.72;93.93;64250.41;5100223;28;20247;-81
2023/07/20 04:53:22;;;;;;;3.63;3.33;;;;;;;21.95;92.02;64276.53;5089564;28;20224;-80
2023/07/20 04:55:51;;;;;;;4.32;3.30;;;;;;;22.09;91.56;64288.59;5090096;28;20236;-80
2023/07/20 04:58:20;;;;;;;10.32;3.38;;;;;;;22.04;90.04;64283.88;5094839;28;20202;-79
2023/07/20 05:00:48;;;;;;;3.85;3.50;;;;;;;22.08;90.19;64290.13;5100348;28;20232;-80
2023/07/20 05:03:16;;;;;;;3.90;3.30;;;;;;;22.20;88.88;64300.06;5108232;28;20262;-79
2023/07/20 05:05:43;;;;;;;9.05;4.35;;;;;;;22.09;90.19;64288.59;5109081;28;20488;-80
2023/07/20 05:08:10;;;;;;;4.25;3.88;;;;;;;22.32;88.24;64310.56;5106957;28;20210;-82
2023/07/20 05:10:38;;;;;;;7.85;3.58;;;;;;;22.62;85.37;64349.19;5088463;28;20212;-81
2023/07/20 05:13:05;;;;;;;5.90;3.08;;;;;;;22.73;83.33;64355.50;5088488;28;20264;-80
2023/07/20 05:15:35;;;;;;;5.43;3.45;;;;;;;;;;5088958;28;20234;-81
2023/07/20 05:18:02;;;;;;;4.65;3.55;;;;;;;23.14;78.58;64401.00;5090842;28;20192;-80
2023/07/20 05:20:31;;;;;;;5.75;3.92;;;;;;;23.43;77.33;64430.81;5106784;28;20226;-80
2023/07/20 05:22:58;;;;;;;8.35;4.03;;;;;;;23.14;76.91;64393.19;5109389;28;20263;-80
2023/07/20 05:25:25;;;;;;;3.83;3.53;;;;;;;23.07;80.70;64388.47;5095563;28;20211;-83
2023/07/20 05:27:55;;;;;;;3.10;2.90;;;;;;;23.17;77.79;64398.41;5089628;28;20211;-79
2023/07/20 05:30:22;;;;;;;6.22;3.97;;;;;;;23.17;78.37;64403.59;5093834;28;20218;-79
2023/07/20 05:32:52;;;;;;;3.30;3.10;;;;;;;23.06;77.73;64392.59;5107035;28;20203;-78
2023/07/20 05:35:19;;;;;;;4.03;3.60;;;;;;;23.00;78.17;64383.22;5106576;28;20210;-79
2023/07/20 05:37:46;;;;;;;5.35;3.88;;;;;;;22.90;79.03;64373.28;5107867;28;20235;-80
2023/07/20 05:40:18;;;;;;;8.68;3.70;;;;;;;23.09;77.38;64392.63;5108428;28;20191;-81
2023/07/20 05:42:45;;;;;;;5.70;3.53;;;;;;;23.13;75.35;64399.41;5107378;28;20242;-79
2023/07/20 05:45:12;;;;;;;11.05;4.13;;;;;;;23.01;75.24;64384.25;5098772;28;20271;-80
2023/07/20 05:47:40;;;;;;;5.63;3.60;;;;;;;23.18;73.40;64402.56;5087561;28;20215;-79
2023/07/20 05:50:10;;;;;;;4.82;3.72;;;;;;;23.27;71.87;64414.06;5087951;28;20255;-80
2023/07/20 05:52:37;;;;;;;4.28;3.67;;;;;;;23.31;72.75;64418.78;5086417;28;20223;-80
2023/07/20 05:55:05;;;;;;;7.70;4.10;;;;;;;23.43;73.58;64426.16;5089087;28;20200;-80
2023/07/20 05:57:31;;;;;;;8.85;4.25;;;;;;;23.53;73.33;64441.28;5093730;28;20236;-80
2023/07/20 05:59:58;;;;;;;6.35;3.78;;;;;;;23.68;71.47;64452.28;5093303;28;20196;-81
2023/07/20 06:02:25;;;;;;;10.63;4.15;;;;;;;23.90;71.48;64477.41;5094185;28;20242;-79
2023/07/20 06:04:52;;;;;;;9.02;3.72;;;;;;;24.02;70.89;64489.47;5091870;28;20196;-82
2023/07/20 06:07:21;;;;;;;9.27;3.90;;;;;;;24.21;68.23;64511.94;5092367;28;20290;-80
2023/07/20 06:09:48;;;;;;;10.02;3.75;;;;;;;24.30;66.63;64523.97;5091920;28;20501;-80
2023/07/20 06:12:15;;;;;;;10.30;5.05;;;;;;;24.19;64.36;64507.78;5097871;28;20542;-78
2023/07/20 06:14:42;;;;;;;5.35;3.60;;;;;;;24.28;62.76;64519.28;5110520;28;20229;-79
2023/07/20 06:17:09;;;;;;;5.95;3.28;;;;;;;24.48;63.04;64540.22;5112899;28;20548;-78
2023/07/20 06:19:36;;;;;;;8.23;3.90;;;;;;;24.37;63.32;64528.69;5111431;28;20207;-80
2023/07/20 06:22:04;;;;;;;4.97;4.50;;;;;;;24.40;62.43;64529.25;5098596;28;20232;-78
2023/07/20 06:24:33;;;;;;;7.20;3.15;;;;;;;24.62;62.53;64549.66;5111152;28;20199;-79
2023/07/20 06:27:00;;;;;;;4.82;3.97;;;;;;;24.61;62.26;64554.34;5113339;28;20253;-77
2023/07/20 06:29:27;;;;;;;10.65;4.13;;;;;;;24.67;64.02;64557.50;5110192;28;20257;-79
2023/07/20 06:31:54;;;;;;;5.75;3.70;;;;;;;24.92;63.63;64583.69;5090800;28;20212;-79
2023/07/20 06:34:21;;;;;;;6.45;3.88;;;;;;;25.18;59.68;64610.94;5095257;28;20366;-79
2023/07/20 06:36:48;;;;;;;4.15;3.60;;;;;;;25.21;60.02;64611.50;5095143;28;20219;-78
2023/07/20 06:39:15;;;;;;;5.78;4.05;;;;;;;25.18;58.51;64610.44;5093771;28;20191;-77
2023/07/20 06:41:44;;;;;;;7.55;4.00;;;;;;;25.27;58.58;64617.22;5090321;28;20277;-78
2023/07/20 06:44:11;;;;;;;5.53;3.75;;;;;;;25.09;59.71;64602.03;5088454;28;20204;-78
2023/07/20 06:46:38;;;;;;;9.35;4.65;;;;;;;25.22;59.21;64619.81;5096507;28;20290;-78
2023/07/20 06:49:09;;;;;;;6.90;3.53;;;;;;;25.18;59.09;64610.94;5106206;28;20204;-80
2023/07/20 06:51:36;;;;;;;12.18;4.82;;;;;;;25.51;58.09;64645.53;5110180;28;20524;-79
2023/07/20 06:54:04;;;;;;;9.15;3.78;;;;;;;25.46;59.56;64637.16;5109676;28;20187;-78
2023/07/20 06:56:31;;;;;;;7.88;3.90;;;;;;;25.59;58.84;64653.91;5108163;28;20571;-78
2023/07/20 06:59:02;;;;;;;9.10;3.70;;;;;;;25.80;60.09;64680.63;5105802;28;20226;-79
2023/07/20 07:01:29;;;;;;;5.25;4.03;;;;;;;26.17;59.83;64717.34;5110659;28;20231;-78
2023/07/20 07:03:56;;;;;;;7.05;4.05;;;;;;;26.39;57.66;64737.28;5102588;28;20206;-83
2023/07/20 07:06:23;;;;;;;6.07;4.07;;;;;;;26.70;55.78;64771.88;5108863;28;20501;-78
2023/07/20 07:08:50;;;;;;;10.23;3.97;;;;;;;26.46;57.57;64744.59;5087804;28;20199;-79
2023/07/20 07:11:17;;;;;;;11.48;4.40;;;;;;;26.34;56.42;64732.03;5089168;28;20242;-79
2023/07/20 07:13:46;;;;;;;8.25;3.70;;;;;;;26.32;56.24;64726.81;5099963;28;20245;-79
2023/07/20 07:16:18;;;;;;;6.90;3.65;;;;;;;25.99;55.95;64695.31;5098034;28;20216;-79
2023/07/20 07:18:45;;;;;;;5.60;3.80;;;;;;;25.86;56.70;64682.22;5107137;28;20217;-78
2023/07/20 07:21:12;;;;;;;8.32;3.15;;;;;;;25.70;57.44;64660.22;5095644;28;20246;-80
2023/07/20 07:23:39;;;;;;;7.53;3.85;;;;;;;25.59;58.47;64656.53;5109568;28;20199;-79
2023/07/20 07:26:16;;;;;;;6.35;4.20;;;;;;;25.75;57.54;64668.06;5110575;28;20216;-80
2023/07/20 07:28:45;;;;;;;7.38;3.40;;;;;;;25.67;58.92;64667.00;5111170;28;20195;-77
2023/07/20 07:31:12;;;;;;;9.15;3.50;;;;;;;25.71;59.15;64665.97;5109477;28;20275;-80
2023/07/20 07:33:40;;;;;;;4.47;3.72;;;;;;;25.90;59.21;64686.41;5107532;28;20281;-80
2023/07/20 07:36:08;;;;;;;5.40;3.47;;;;;;;26.19;57.96;64721.53;5114490;28;20221;-80
2023/07/20 07:38:34;;;;;;;7.65;4.15;;;;;;;26.16;57.87;64721.50;5111130;28;20196;-78
2023/07/20 07:41:01;;;;;;;7.00;4.03;;;;;;;25.93;58.13;64691.63;5093702;28;20216;-79
2023/07/20 07:43:28;;;;;;;7.15;3.58;;;;;;;26.00;58.63;64698.97;5103181;28;20489;-79
2023/07/20 07:45:57;;;;;;;4.75;4.07;;;;;;;26.19;59.08;64714.22;5103483;28;20215;-78
2023/07/20 07:48:25;;;;;;;8.15;4.10;;;;;;;26.22;59.13;64719.44;5103570;28;20214;-78
2023/07/20 07:50:55;;;;;;;13.05;4.15;;;;;;;26.31;58.26;64728.34;5097020;28;20355;-78
2023/07/20 07:53:21;;;;;;;4.80;3.78;;;;;;;25.87;57.59;64685.34;5095919;28;20206;-77
2023/07/20 07:55:48;;;;;;;7.60;4.47;;;;;;;25.90;58.62;64686.41;5100189;28;22786;-78
2023/07/20 07:58:15;;;;;;;9.38;6.15;;;;;;;26.18;57.33;64713.16;5101120;28;20200;-78
2023/07/20 08:00:43;;;;;;;17.88;5.00;;;;;;;26.40;58.58;64738.34;5101005;28;20196;-79
2023/07/20 08:03:10;;;;;;;8.43;4.53;;;;;;;26.55;58.01;64753.53;5094404;28;20246;-80
2023/07/20 08:05:37;;;;;;;9.25;3.90;;;;;;;26.79;60.28;64778.72;5098547;28;20203;-79
2023/07/20 08:08:06;;;;;;;5.72;4.13;;;;;;;27.00;58.25;64803.88;5095863;28;20468;-79
2023/07/20 08:10:33;;;;;;;7.70;5.22;;;;;;;26.76;58.06;64781.31;5093833;28;20493;-77
2023/07/20 08:13:01;;;;;;;12.80;4.93;;;;;;;26.68;59.36;64769.81;5099013;28;20188;-77
2023/07/20 08:15:28;;;;;;;9.52;5.68;;;;;;;26.51;59.55;64747.25;5101219;28;20198;-78
2023/07/20 08:17:56;;;;;;;11.27;5.03;;;;;;;26.45;59.72;64745.66;5089337;28;20223;-78
2023/07/20 08:20:27;;;;;;;14.13;5.28;;;;;;;26.23;60.54;64721.00;5101392;28;20212;-80
2023/07/20 08:22:55;;;;;;;10.40;5.05;;;;;;;26.66;60.02;64767.69;5103925;28;20219;-80
2023/07/20 08:25:25;;;;;;;7.25;4.93;;;;;;;27.02;59.34;64811.22;5102145;28;20204;-82
2023/07/20 08:27:52;;;;;;;10.63;5.18;;;;;;;27.11;60.67;64815.41;5100218;28;20364;-78
2023/07/20 08:30:23;;;;;;;16.98;5.63;;;;;;;27.18;59.99;64820.16;5099200;28;20206;-82
2023/07/20 08:32:50;;;;;;;9.52;3.90;;;;;;;26.73;62.38;64772.44;5095654;28;20200;-81
2023/07/20 08:35:18;;;;;;;4.70;3.38;;;;;;;26.07;62.60;64701.13;5099554;28;20203;-83
2023/07/20 08:37:45;;;;;;;4.53;3.42;;;;;;;26.01;60.52;64695.31;5104366;28;20214;-78
2023/07/20 08:40:14;;;;;;;3.85;2.55;;;;;;;25.54;58.12;64648.16;5097157;28;20203;-77
2023/07/20 08:42:44;;;;;;;7.78;3.25;;;;;;;25.29;59.67;64621.94;5098744;28;20269;-80
2023/07/20 08:45:14;;;;;;;7.93;2.95;;;;;;;25.39;58.13;64632.97;5099543;28;20233;-78
2023/07/20 08:47:44;;;;;;;5.65;2.95;;;;;;;25.55;58.08;64651.81;5098915;28;20278;-83
2023/07/20 08:50:12;;;;;;;3.15;2.88;;;;;;;25.34;58.92;64629.78;5097749;28;20199;-79
2023/07/20 08:52:41;;;;;;;9.27;3.20;;;;;;;25.47;58.70;64641.34;5099073;28;20281;-81
2023/07/20 08:55:09;;;;;;;4.00;2.70;;;;;;;25.95;58.09;64694.28;5088182;28;20652;-81
2023/07/20 08:57:38;;;;;;;7.25;2.50;;;;;;;25.60;55.82;64654.97;5095249;28;20238;-77
2023/07/20 09:00:11;;;;;;;3.90;2.30;;;;;;;25.92;56.77;64691.09;5086485;28;20434;-80
2023/07/20 09:02:40;;;;;;;7.20;2.55;;;;;;;26.23;56.29;64717.91;5088169;28;20231;-79
2023/07/20 09:05:09;;;;;;;4.30;2.50;;;;;;;25.78;54.92;64673.31;5097726;28;20196;-79
2023/07/20 09:07:37;;;;;;;5.13;2.40;;;;;;;26.10;55.19;64707.41;5091338;28;20279;-79
2023/07/20 09:10:06;;;;;;;4.40;3.33;;;;;;;26.00;54.85;64694.28;5092413;28;20208;-79
2023/07/20 09:12:33;;;;;;;4.68;2.88;;;;;;;25.86;55.02;64687.44;5091825;28;20250;-79
2023/07/20 09:15:00;;;;;;;5.55;2.33;;;;;;;25.75;55.42;64672.75;5095840;28;20304;-77
2023/07/20 09:17:30;;;;;;;6.43;2.55;;;;;;;26.02;53.99;64698.47;5096812;28;20278;-81
2023/07/20 09:19:57;;;;;;;4.80;3.00;;;;;;;26.40;53.64;64740.41;5096455;28;20202;-83
2023/07/20 09:22:31;;;;;;;3.65;2.60;;;;;;;26.53;52.46;64754.56;5098553;28;20234;-78
2023/07/20 09:24:59;;;;;;;8.30;2.97;;;;;;;26.26;52.26;64725.72;5097938;28;20192;-79
2023/07/20 09:27:37;;;;;;;4.95;1.92;;;;;;;26.19;53.02;64714.22;5094054;28;20513;-78
2023/07/20 09:30:07;;;;;;;5.40;3.22;;;;;;;26.19;53.10;64718.91;5095996;28;20187;-78
2023/07/20 09:32:42;;;;;;;3.38;2.47;;;;;;;26.29;51.27;64729.41;5097594;28;20235;-80
2023/07/20 09:35:15;;;;;;;5.50;2.65;;;;;;;26.62;50.08;64764.00;5104443;28;20199;-81
2023/07/20 09:37:51;;;;;;;5.85;2.40;;;;;;;26.81;50.12;64780.81;5095333;28;20238;-82
2023/07/20 09:40:19;;;;;;;10.50;2.55;;;;;;;26.66;50.41;64765.06;5097227;28;20195;-80
2023/07/20 09:42:46;;;;;;;4.43;2.38;;;;;;;26.64;48.93;64762.97;5095540;28;20299;-77
2023/07/20 09:45:14;;;;;;;6.93;2.60;;;;;;;27.00;49.17;64803.34;5105974;28;20476;-79
2023/07/20 09:47:43;;;;;;;6.80;2.53;;;;;;;26.78;49.67;64777.66;5099072;28;20243;-78
2023/07/20 09:50:11;;;;;;;4.63;2.42;;;;;;;26.99;50.19;64800.22;5094448;28;20248;-81
2023/07/20 09:52:41;;;;;;;3.80;2.58;;;;;;;26.97;49.24;64803.34;5098775;28;20216;-78
2023/07/20 09:55:11;;;;;;;9.68;2.25;;;;;;;27.43;48.31;64843.25;5096586;28;20252;-83
2023/07/20 09:57:38;;;;;;;6.25;2.45;;;;;;;27.76;47.36;64879.97;5101876;28;20219;-78
2023/07/20 10:00:12;;;;;;;4.03;2.08;;;;;;;28.12;46.90;64917.78;5105875;28;20215;-81
2023/07/20 10:02:50;;;;;;;5.05;2.50;;;;;;;28.23;45.99;64932.47;5096417;28;20238;-82
2023/07/20 10:05:17;;;;;;;6.05;2.58;;;;;;;28.41;45.11;64953.47;5096529;28;20203;-79
2023/07/20 10:07:48;;;;;;;8.60;3.35;;;;;;;28.36;45.86;64945.59;5095444;28;20226;-82
2023/07/20 10:10:16;;;;;;;4.70;2.10;;;;;;;27.89;46.16;64898.84;5095822;28;20192;-79
2023/07/20 10:12:44;;;;;;;5.15;2.40;;;;;;;27.75;47.00;64876.84;5100435;28;20246;-83
2023/07/20 10:15:20;;;;;;;2.97;1.90;;;;;;;27.85;46.15;64889.44;5103870;28;20423;-84
2023/07/20 10:18:13;;;;;;;4.78;2.35;;;;;;;28.11;45.81;64919.38;5100792;28;20212;-85
2023/07/20 10:20:42;;;;;;;5.07;2.65;;;;;;;28.39;45.06;64951.38;5099567;28;20211;-79
2023/07/20 10:23:10;;;;;;;5.05;2.83;;;;;;;28.23;44.05;64929.84;5101709;28;20223;-84
2023/07/20 10:25:41;;;;;;;7.18;2.17;;;;;;;28.47;43.43;64956.63;5097503;28;20207;-80
2023/07/20 10:28:08;;;;;;;5.05;2.78;;;;;;;28.00;44.17;64905.72;5087647;28;20219;-79
2023/07/20 10:30:36;;;;;;;6.75;2.60;;;;;;;27.93;44.55;64897.84;5088122;28;20426;-81
2023/07/20 10:33:07;;;;;;;7.35;2.85;;;;;;;28.26;44.69;64932.50;5094448;28;20196;-84
2023/07/20 10:35:52;;;;;;;4.25;2.40;;;;;;;28.44;43.53;64954.53;5097119;28;20192;-79
2023/07/20 10:38:20;;;;;;;4.47;2.20;;;;;;;28.48;43.56;64955.06;5090508;28;20198;-81
2023/07/20 10:40:55;;;;;;;8.95;2.72;;;;;;;29.04;42.94;65016.53;5090600;28;20227;-81
2023/07/20 10:43:23;;;;;;;4.45;2.72;;;;;;;29.04;43.76;65011.81;5092709;28;20219;-82
2023/07/20 10:45:52;;;;;;;7.63;2.30;;;;;;;29.41;42.78;65052.78;5100190;28;20276;-81
2023/07/20 10:48:22;;;;;;;10.80;2.80;;;;;;;29.70;42.35;65082.78;5093753;28;20196;-81
2023/07/20 10:51:14;;;;;;;3.33;2.33;;;;;;;29.26;43.42;65034.94;5093761;28;20215;-82
2023/07/20 10:53:41;;;;;;;7.45;2.30;;;;;;;29.22;43.25;65030.22;5111182;28;20203;-79
2023/07/20 10:56:13;;;;;;;4.95;2.63;;;;;;;29.66;44.19;65081.69;5109372;28;20223;-81
2023/07/20 10:58:41;;;;;;;6.50;2.90;;;;;;;29.99;42.42;65113.25;5113624;28;20262;-80
2023/07/20 11:01:09;;;;;;;5.70;2.55;;;;;;;29.96;41.78;65110.09;5112332;28;20232;-80
2023/07/20 11:03:40;;;;;;;9.27;3.75;;;;;;;30.02;42.57;65116.94;5110515;28;20231;-81
2023/07/20 11:06:36;;;;;;;6.07;2.88;;;;;;;30.30;45.44;65151.13;5113522;28;20448;-81
2023/07/20 11:09:10;;;;;;;9.73;2.95;;;;;;;30.40;44.94;65159.00;5113757;28;20205;-81
2023/07/20 11:11:39;;;;;;;9.27;3.13;;;;;;;30.57;42.31;65176.88;5112060;28;20285;-81
2023/07/20 11:14:08;;;;;;;7.35;2.65;;;;;;;30.57;40.53;65174.25;5108616;28;20468;-82
2023/07/20 11:16:36;;;;;;;6.93;2.65;;;;;;;30.77;40.16;65194.78;5112286;28;20231;-81
2023/07/20 11:19:07;;;;;;;6.60;3.20;;;;;;;30.53;40.41;65175.31;5109479;28;20207;-79
2023/07/20 11:21:39;;;;;;;8.40;2.78;;;;;;;30.94;39.75;65217.94;5110443;28;20226;-81
2023/07/20 11:24:09;;;;;;;6.00;2.58;;;;;;;31.56;39.71;65277.94;5092401;28;20223;-82
2023/07/20 11:26:47;;;;;;;4.43;2.85;;;;;;;31.88;41.51;65308.97;5094175;28;20230;-82
2023/07/20 11:29:15;;;;;;;8.85;3.55;;;;;;;31.80;39.58;65300.56;5092523;28;20200;-82
2023/07/20 11:31:43;;;;;;;12.43;3.58;;;;;;;32.02;39.63;65323.72;5101675;28;20261;-80
2023/07/20 11:34:14;;;;;;;8.32;3.92;;;;;;;32.14;39.32;65341.63;5112924;28;20207;-81
2023/07/20 11:36:43;;;;;;;6.90;2.95;;;;;;;32.12;38.17;65339.00;5111266;28;20223;-80
2023/07/20 11:39:16;;;;;;;4.85;3.22;;;;;;;31.79;38.71;65307.38;5112086;28;20488;-83
2023/07/20 11:41:48;;;;;;;6.22;2.70;;;;;;;31.77;38.43;65305.31;5115749;28;20237;-81